메인 페이지
METAR-TAF:

METAR-TAF

공항 :

우아리 부메디엔 공항

알제, 알제리

위도: 36-43N, 경도: 003-15E, 고도: 25m

현재 날씨관측

예보는 14분 전, 09:30시(UTC)에 발표되었습니다.
북동10kt
온도 17°C
습도 94%
기압 1014 hPa
시정: 8000m
고도 1000ft 상공 구름 많음
고도 4000ft 상공 구름 보통

METAR: DAAG 200930Z 04010KT 8000 BKN010 SCT040 17/16 Q1014

시각: 10:44 (09:44 UTC)

예보

예보는 4 시간 44분 전, 05:00시(UTC)에 발표되었습니다.
예보 대상 시간: 20일 06시부터 21일 06시까지 (UTC)
여러 방향의 바람 2kt
시정: 5000m
고도 1000ft 상공 구름 많음
고도 4000ft 상공 구름 보통
약한이슬비
확률 40% :
일시적
20일 06시부터 20일 11시까지 (UTC)
시정: 3000m
고도 600ft 상공 구름 많음
이슬비, 박무
확률 30% :
일시적
20일 06시부터 20일 10시까지 (UTC)
고도 2000ft 상공 구름 조금, 타워링 적운.
전환 중
20일 10시부터 20일 13시까지 (UTC)
북동10kt
시정: 7000m
고도 1600ft 상공 구름 보통
확률 40%
20일 12시부터 20일 18시까지 (UTC)
시정: 3000m
고도 1000ft 상공 구름 많음
약한이슬비
전환 중
20일 16시부터 20일 18시까지 (UTC)
여러 방향의 바람 2kt
전환 중
20일 22시부터 21일 02시까지 (UTC)
시정: 3000m
박무
확률 40% :
일시적
21일 00시부터 21일 06시까지 (UTC)
고도 800ft 상공 구름 많음

TAF: DAAG 200500Z 2006/2106 VRB02KT 5000 -DZ BKN010 SCT040 PROB40 TEMPO 2006/2011 3000 DZBR BKN006 PROB30 TEMPO 2006/2010 FEW020TCU BECMG 2010/2013 04010KT 7000 NSW SCT016 PROB40 2012/2018 3000 -DZ BKN010 BECMG 2016/2018 VRB02KT BECMG 2022/2102 3000 BR PROB40 TEMPO 2100/2106 0600FG BKN008

4,000개 이상의 공항 관측 자료 및 예보 (METAR 및 TAF 보고).

지도상에서 검색 가능한 기상관측소가 노란 점과 빨간 점으로 표시되어 있습니다.

기상관측소 명을 보려면 표시 위로 마우스를 이동하세요.

날씨 관측과 예보를 보려면 클릭하세요.

지도 변경 : 확대하려면 엑스 표시가 있는 녹색 버튼, 축소하려면 빼기 표시가 있는 녹색 버튼, 다음 페이지의 지도를 보려면 녹색 화살표를 클릭하세요.


METAR-TAF: